Time;durP1;ratioP1;P1;durP2;ratioP2;P2;SDS_P1;SDS_P2;PMS_P1;PMS_P2;Temp;Humidity;BMP_temperature;BMP_pressure;BME280_temperature;BME280_humidity;BME280_pressure;Samples;Min_cycle;Max_cycle;Signal;HPM_P1;HPM_P2
2022/09/02 00:01:36;;;;;;;;;5.67;5.33;;;;;24.34;36.98;100813.56;5033533;28;45397;-64
2022/09/02 00:04:12;;;;;;;;;8.33;8.33;;;;;24.32;36.96;100807.53;5018638;28;45578;-64
2022/09/02 00:06:38;;;;;;;;;9.00;6.00;;;;;24.35;36.41;100809.78;5017067;28;46683;-65
2022/09/02 00:09:07;;;;;;;;;8.67;8.67;;;;;24.30;36.40;100806.97;5017978;28;45385;-63
2022/09/02 00:11:34;;;;;;;;;7.00;7.00;;;;;24.29;36.82;100794.44;5018181;28;45313;-64
2022/09/02 00:14:05;;;;;;;;;9.33;9.33;;;;;24.29;37.13;100801.75;5018311;28;45487;-64
2022/09/02 00:16:32;;;;;;;;;7.67;7.67;;;;;24.20;37.08;100783.03;5017807;28;46294;-64
2022/09/02 00:18:59;;;;;;;;;11.33;9.00;;;;;24.26;36.92;100790.25;5017874;28;45327;-63
2022/09/02 00:21:24;;;;;;;;;7.33;7.33;;;;;24.21;37.17;100792.00;5018100;28;45479;-64
2022/09/02 00:23:50;;;;;;;;;11.00;10.00;;;;;24.19;37.22;100794.13;5018190;28;45308;-63
2022/09/02 00:26:16;;;;;;;;;7.00;7.00;;;;;24.10;37.15;100777.34;5017787;28;46402;-64
2022/09/02 00:28:41;;;;;;;;;10.33;10.33;;;;;24.09;37.67;100783.00;5017767;28;45510;-64
2022/09/02 00:31:07;;;;;;;;;8.00;8.00;;;;;24.01;37.47;100776.00;5017862;28;45246;-64
2022/09/02 00:33:33;;;;;;;;;8.33;8.33;;;;;24.01;37.55;100775.19;5018077;28;45557;-64
2022/09/02 00:35:59;;;;;;;;;8.00;8.00;;;;;23.86;38.03;100757.44;5017462;28;45933;-64
2022/09/02 00:38:25;;;;;;;;;9.33;9.33;;;;;23.93;37.58;100760.88;5017621;28;45302;-64
2022/09/02 00:40:50;;;;;;;;;8.67;8.67;;;;;23.88;38.11;100757.22;5017643;28;45506;-64
2022/09/02 00:43:26;;;;;;;;;7.00;7.00;;;;;23.92;37.57;100767.38;5017720;28;45506;-63
2022/09/02 00:45:52;;;;;;;;;8.33;7.33;;;;;23.70;38.28;100730.13;5016320;28;46631;-63
2022/09/02 00:48:18;;;;;;;;;8.00;8.00;;;;;23.88;37.85;100765.34;5015920;28;45512;-63
2022/09/02 00:50:43;;;;;;;;;10.00;9.67;;;;;23.87;38.32;100764.53;5015945;28;45428;-63
2022/09/02 00:53:12;;;;;;;;;7.67;7.00;;;;;23.84;38.12;100756.84;5017696;28;45277;-62
2022/09/02 00:55:45;;;;;;;;;8.33;8.33;;;;;23.76;38.47;100750.91;5017287;28;46678;-66
2022/09/02 00:58:21;;;;;;;;;13.00;11.33;;;;;23.78;38.84;100760.47;5017260;28;45286;-65
2022/09/02 01:00:51;;;;;;;;;10.67;10.67;;;;;23.74;39.06;100769.31;5017430;28;45362;-63
2022/09/02 01:03:20;;;;;;;;;9.33;8.67;;;;;23.68;39.17;100762.91;5017344;28;45485;-63
2022/09/02 01:05:48;;;;;;;;;10.00;10.00;;;;;23.24;39.15;100696.25;5016848;28;47297;-63
2022/09/02 01:08:18;;;;;;;;;9.33;8.33;;;;;23.32;39.57;100723.06;5017290;28;45519;-63
2022/09/02 01:10:45;;;;;;;;;6.00;6.00;;;;;23.55;39.09;100763.06;5017155;28;45434;-64
2022/09/02 01:13:16;;;;;;;;;7.00;7.00;;;;;23.56;39.73;100767.41;5017144;28;45567;-64
2022/09/02 01:15:53;;;;;;;;;7.67;7.67;;;;;23.54;39.52;100761.41;5016846;28;48674;-64
2022/09/02 01:18:30;;;;;;;;;6.67;6.67;;;;;23.58;39.38;100759.91;5016956;28;45320;-63
2022/09/02 01:20:58;;;;;;;;;9.67;9.67;;;;;23.48;39.17;100748.75;5016887;28;45493;-63
2022/09/02 01:23:24;;;;;;;;;9.67;9.00;;;;;23.44;39.34;100744.84;5017318;28;45258;-63
2022/09/02 01:25:49;;;;;;;;;11.00;7.33;;;;;23.52;39.45;100758.09;5016624;28;46414;-63
2022/09/02 01:28:17;;;;;;;;;10.67;10.33;;;;;23.43;39.82;100746.72;5017090;28;45368;-63
2022/09/02 01:30:47;;;;;;;;;9.33;9.33;;;;;23.27;39.59;100721.03;5017129;28;45448;-63
2022/09/02 01:33:13;;;;;;;;;8.33;8.00;;;;;23.37;40.14;100744.91;5017117;28;45445;-63
2022/09/02 01:35:39;;;;;;;;;8.00;7.67;;;;;23.44;39.66;100774.69;5016586;28;47391;-64
2022/09/02 01:38:05;;;;;;;;;12.33;12.00;;;;;23.41;40.40;100764.25;5016858;28;45233;-69
2022/09/02 01:40:32;;;;;;;;;8.67;8.67;;;;;23.36;40.02;100763.06;5016841;28;45442;-63
2022/09/02 01:43:00;;;;;;;;;9.33;8.67;;;;;23.41;39.90;100759.66;5016935;28;45373;-63
2022/09/02 01:45:26;;;;;;;;;8.00;8.00;;;;;23.20;40.57;100728.41;5016460;28;47471;-63
2022/09/02 01:47:52;;;;;;;;;11.00;8.33;;;;;23.37;40.15;100748.44;5032094;28;45392;-64
2022/09/02 01:50:18;;;;;;;;;8.67;7.67;;;;;23.43;40.15;100751.31;5016051;28;53401;-64
2022/09/02 01:52:43;;;;;;;;;9.67;7.33;;;;;23.38;40.61;100752.81;5017073;28;45419;-65
2022/09/02 01:55:10;;;;;;;;;11.67;10.00;;;;;23.38;40.20;100733.81;5016668;28;47427;-64
2022/09/02 01:57:35;;;;;;;;;9.33;8.00;;;;;23.40;40.06;100736.31;5016461;28;45483;-64
2022/09/02 02:00:01;;;;;;;;;11.00;11.00;;;;;23.47;40.10;100749.81;5016495;28;45296;-64
2022/09/02 02:02:27;;;;;;;;;11.33;11.33;;;;;22.93;40.23;100664.72;5016803;28;45734;-64
2022/09/02 02:04:53;;;;;;;;;8.33;8.00;;;;;23.41;40.46;100770.53;5016411;28;46375;-64
2022/09/02 02:07:19;;;;;;;;;12.00;10.33;;;;;23.34;40.43;100786.88;5014956;28;45854;-64
2022/09/02 02:09:45;;;;;;;;;14.00;11.33;;;;;23.17;40.59;100741.59;5016442;28;45348;-63
2022/09/02 02:12:10;;;;;;;;;11.67;9.67;;;;;23.10;40.76;100713.75;5016650;28;45308;-64
2022/09/02 02:14:36;;;;;;;;;7.33;7.33;;;;;23.54;40.28;100813.78;5016291;28;46483;-64
2022/09/02 02:17:02;;;;;;;;;9.67;9.67;;;;;23.56;40.09;100779.13;5016414;28;45108;-64
2022/09/02 02:19:28;;;;;;;;;7.33;7.33;;;;;23.60;39.92;100763.22;5016426;28;45278;-64
2022/09/02 02:21:53;;;;;;;;;9.67;9.67;;;;;23.55;39.93;100784.75;5016465;28;45400;-64
2022/09/02 02:24:18;;;;;;;;;8.00;8.00;;;;;23.61;40.30;100811.00;5014755;28;47701;-64
2022/09/02 02:26:44;;;;;;;;;8.00;8.00;;;;;23.59;39.66;100783.28;5016294;28;45464;-64
2022/09/02 02:29:10;;;;;;;;;10.67;9.00;;;;;23.62;39.68;100797.22;5017503;28;45351;-64
2022/09/02 02:31:36;;;;;;;;;8.00;8.00;;;;;23.65;39.90;100787.81;5019440;28;45341;-65
2022/09/02 02:34:01;;;;;;;;;8.00;8.00;;;;;23.60;39.85;100771.34;5019227;28;46134;-64
2022/09/02 02:36:27;;;;;;;;;12.00;12.00;;;;;23.72;39.44;100788.53;5019374;28;45285;-63
2022/09/02 02:38:53;;;;;;;;;9.00;9.00;;;;;23.75;39.39;100793.50;5018428;28;45301;-63
2022/09/02 02:41:18;;;;;;;;;9.00;9.00;;;;;23.67;39.53;100766.69;5019635;28;45310;-63
2022/09/02 02:43:43;;;;;;;;;8.33;8.33;;;;;23.16;39.08;100688.44;5019478;28;46429;-65
2022/09/02 02:46:10;;;;;;;;;8.67;8.67;;;;;23.62;39.53;100753.78;5019131;28;45317;-63
2022/09/02 02:48:36;;;;;;;;;9.33;8.67;;;;;23.72;39.63;100772.25;5019045;28;45214;-63
2022/09/02 02:51:02;;;;;;;;;11.33;10.00;;;;;23.58;39.68;100760.72;5018983;28;45587;-64
2022/09/02 02:53:30;;;;;;;;;9.67;9.00;;;;;23.62;39.53;100761.94;5019068;28;47493;-64
2022/09/02 02:55:55;;;;;;;;;7.00;7.00;;;;;23.69;39.28;100771.88;5019161;28;45310;-66
2022/09/02 02:58:21;;;;;;;;;7.33;7.33;;;;;23.69;39.40;100778.16;5019184;28;45332;-64
2022/09/02 03:00:47;;;;;;;;;12.00;8.33;;;;;23.60;39.26;100755.91;5019512;28;45375;-63
2022/09/02 03:03:13;;;;;;;;;9.33;9.33;;;;;23.11;39.83;100670.13;5017774;28;47384;-64
2022/09/02 03:05:38;;;;;;;;;9.33;9.00;;;;;23.65;39.48;100760.66;5019035;28;45927;-64
2022/09/02 03:08:06;;;;;;;;;9.33;9.33;;;;;23.52;39.23;100742.63;5019295;28;45404;-64
2022/09/02 03:10:32;;;;;;;;;11.67;8.33;;;;;23.49;39.96;100734.94;5019126;28;45388;-64
2022/09/02 03:13:02;;;;;;;;;16.33;14.33;;;;;23.56;40.12;100759.28;5018736;28;47619;-64
2022/09/02 03:15:28;;;;;;;;;17.00;17.00;;;;;23.47;40.77;100760.66;5018689;28;45260;-64
2022/09/02 03:17:55;;;;;;;;;12.67;11.67;;;;;23.41;41.20;100759.66;5018934;28;45414;-63
2022/09/02 03:20:21;;;;;;;;;24.00;22.67;;;;;23.34;41.33;100759.75;5018889;28;45527;-64
2022/09/02 03:22:49;;;;;;;;;21.33;20.33;;;;;23.33;41.53;100768.97;5018495;28;47135;-63
2022/09/02 03:25:17;;;;;;;;;25.67;25.67;;;;;23.23;41.94;100749.69;5018813;28;45312;-63
2022/09/02 03:27:44;;;;;;;;;30.67;26.67;;;;;23.08;42.00;100732.13;5018815;28;45482;-64
2022/09/02 03:30:13;;;;;;;;;26.00;22.67;;;;;23.16;42.13;100753.50;5018755;28;45495;-63
2022/09/02 03:32:38;;;;;;;;;26.00;23.33;;;;;23.00;42.21;100761.19;5018440;28;45697;-63
2022/09/02 03:35:07;;;;;;;;;20.33;18.00;;;;;22.94;42.63;100743.13;5016832;28;52868;-63
2022/09/02 03:37:34;;;;;;;;;27.33;26.33;;;;;22.97;42.66;100763.53;5017355;28;45486;-63
2022/09/02 03:40:02;;;;;;;;;30.33;27.00;;;;;22.82;42.60;100720.50;5017557;28;45381;-63
2022/09/02 03:42:28;;;;;;;;;26.33;26.33;;;;;22.83;43.47;100740.34;5017887;28;45742;-63
2022/09/02 03:44:53;;;;;;;;;24.33;21.33;;;;;22.70;43.40;100742.09;5016610;28;45313;-64
2022/09/02 03:47:20;;;;;;;;;19.67;18.33;;;;;22.70;43.59;100735.84;5018417;28;45230;-65
2022/09/02 03:49:45;;;;;;;;;17.00;15.67;;;;;22.49;44.71;100733.53;5018079;28;45522;-64
2022/09/02 03:52:11;;;;;;;;;22.00;17.67;;;;;22.32;45.25;100717.03;5015629;28;46018;-62
2022/09/02 03:54:36;;;;;;;;;19.33;19.33;;;;;22.32;45.32;100709.72;5016980;28;45325;-63
2022/09/02 03:57:02;;;;;;;;;19.00;17.33;;;;;22.28;45.72;100711.22;5017352;28;45482;-64
2022/09/02 03:59:27;;;;;;;;;18.67;17.67;;;;;21.62;46.53;100643.19;5017262;28;45363;-63
2022/09/02 04:01:53;;;;;;;;;17.33;17.33;;;;;21.96;47.68;100718.50;5016595;28;46309;-63
2022/09/02 04:04:18;;;;;;;;;18.50;17.50;;;;;21.85;48.43;100720.06;5016584;28;45531;-64
2022/09/02 04:06:44;;;;;;;;;22.33;17.00;;;;;21.84;48.68;100734.66;5016936;28;45526;-64
2022/09/02 04:09:09;;;;;;;;;28.67;22.33;;;;;21.78;48.62;100713.00;5015571;28;45577;-64
2022/09/02 04:11:36;;;;;;;;;16.33;16.00;;;;;21.97;48.16;100735.59;5016290;28;47421;-63
2022/09/02 04:14:01;;;;;;;;;21.33;18.00;;;;;21.98;48.04;100718.28;5016574;28;45288;-64
2022/09/02 04:16:29;;;;;;;;;21.67;20.33;;;;;21.99;48.14;100712.66;5016531;28;45273;-64
2022/09/02 04:18:57;;;;;;;;;17.33;16.33;;;;;22.11;48.49;100740.72;5016830;28;45439;-64
2022/09/02 04:21:25;;;;;;;;;22.67;19.67;;;;;21.89;48.63;100709.63;5016115;28;46324;-64
2022/09/02 04:23:53;;;;;;;;;16.67;16.33;;;;;21.61;49.01;100653.19;5016224;28;45443;-64
2022/09/02 04:26:20;;;;;;;;;19.67;18.67;;;;;21.96;49.24;100729.34;5016329;28;45418;-62
2022/09/02 04:28:48;;;;;;;;;15.00;14.67;;;;;21.90;50.26;100713.16;5016212;28;45317;-64
2022/09/02 04:31:15;;;;;;;;;12.67;12.67;;;;;21.23;50.44;100621.56;5015960;28;45521;-64
2022/09/02 04:33:41;;;;;;;;;21.67;16.00;;;;;21.81;51.02;100726.94;5015981;28;45332;-63
2022/09/02 04:36:09;;;;;;;;;13.33;11.67;;;;;21.77;51.40;100728.41;5016341;28;45138;-63
2022/09/02 04:38:34;;;;;;;;;9.00;8.00;;;;;21.64;52.92;100725.00;5016440;28;45361;-63
2022/09/02 04:41:06;;;;;;;;;6.00;6.00;;;;;21.54;53.30;100728.97;5019250;28;45700;-63
2022/09/02 04:43:31;;;;;;;;;14.67;13.67;;;;;21.54;53.50;100725.44;5023626;28;45211;-64
2022/09/02 04:45:56;;;;;;;;;13.00;13.00;;;;;21.41;54.51;100715.50;5015523;28;49109;-64
2022/09/02 04:48:22;;;;;;;;;14.00;13.00;;;;;21.08;54.04;100661.56;5034805;28;45372;-64
2022/09/02 04:50:48;;;;;;;;;10.00;10.00;;;;;21.67;53.86;100738.91;4996571;28;1135049;-64
2022/09/02 04:53:14;;;;;;;;;11.33;11.33;;;;;21.79;53.79;100736.31;5036284;28;45478;-66
2022/09/02 04:55:41;;;;;;;;;13.33;11.67;;;;;21.86;53.57;100723.59;5037424;28;45343;-64
2022/09/02 04:58:09;;;;;;;;;17.00;16.00;;;;;21.80;54.03;100710.91;5052357;28;45322;-66
2022/09/02 05:00:37;;;;;;;;;10.00;10.00;;;;;21.58;54.04;100661.72;5021137;28;46718;-65
2022/09/02 05:03:05;;;;;;;;;14.00;12.33;;;;;22.01;54.87;100729.50;5031803;28;45467;-65
2022/09/02 05:05:31;;;;;;;;;15.33;13.33;;;;;21.86;54.88;100716.31;5036862;28;45263;-65
2022/09/02 05:07:57;;;;;;;;;11.67;11.67;;;;;21.56;56.66;100699.81;5036620;28;45585;-63
2022/09/02 05:10:22;;;;;;;;;15.33;13.67;;;;;21.47;57.32;100714.66;5036488;28;47278;-64
2022/09/02 05:12:48;;;;;;;;;13.00;13.00;;;;;21.19;58.40;100695.19;5029836;28;45286;-64
2022/09/02 05:15:14;;;;;;;;;13.00;13.00;;;;;21.08;58.82;100707.53;5016802;28;45344;-65
2022/09/02 05:17:39;;;;;;;;;17.00;14.67;;;;;21.08;58.87;100701.28;5017122;28;45482;-64
2022/09/02 05:20:07;;;;;;;;;17.00;14.00;;;;;21.04;58.84;100697.38;5017778;28;46551;-65
2022/09/02 05:22:34;;;;;;;;;11.33;11.33;;;;;21.13;58.63;100706.88;5030631;28;45297;-63
2022/09/02 05:24:59;;;;;;;;;16.00;16.00;;;;;20.96;58.63;100695.72;5036740;28;45257;-64
2022/09/02 05:27:25;;;;;;;;;15.67;13.67;;;;;20.91;58.67;100693.66;5018536;28;45309;-65
2022/09/02 05:29:54;;;;;;;;;11.67;11.67;;;;;20.88;58.38;100695.94;5044066;28;48379;-67
2022/09/02 05:32:21;;;;;;;;;16.00;13.67;;;;;21.00;58.02;100705.03;5036585;28;45279;-65
2022/09/02 05:34:47;;;;;;;;;12.33;12.33;;;;;21.10;57.61;100724.34;5036649;28;45298;-66
2022/09/02 05:37:12;;;;;;;;;17.00;14.33;;;;;21.11;56.97;100714.38;5036453;28;45451;-67
2022/09/02 05:39:37;;;;;;;;;13.00;13.00;;;;;21.21;56.02;100720.16;5036313;28;45950;-65
2022/09/02 05:42:03;;;;;;;;;13.00;13.00;;;;;21.21;55.14;100722.84;5034788;28;53506;-64
2022/09/02 05:44:30;;;;;;;;;11.67;9.33;;;;;21.02;54.70;100691.31;5033664;28;45492;-64
2022/09/02 05:46:55;;;;;;;;;3.00;3.00;;;;;20.99;54.40;100691.75;5016350;28;45203;-64
2022/09/02 05:49:21;;;;;;;;;12.33;11.00;;;;;21.09;54.31;100714.59;5015686;28;46334;-65
2022/09/02 05:51:54;;;;;;;;;10.67;10.67;;;;;21.17;53.98;100718.91;5016257;28;45474;-64
2022/09/02 05:54:27;;;;;;;;;13.33;12.67;;;;;21.16;53.84;100706.44;5015919;28;45420;-65
2022/09/02 05:56:56;;;;;;;;;12.00;11.33;;;;;21.01;53.72;100686.94;5029459;28;45475;-64
2022/09/02 05:59:24;;;;;;;;;12.00;11.00;;;;;20.82;54.25;100658.94;5031910;28;46547;-67
2022/09/02 06:01:49;;;;;;;;;10.67;10.67;;;;;19.74;53.74;100467.75;5033946;28;45372;-66
2022/09/02 06:04:15;;;;;;;;;15.00;13.67;;;;;21.23;53.81;100724.31;5038090;28;45277;-66
2022/09/02 06:06:42;;;;;;;;;12.33;11.33;;;;;21.31;53.87;100717.84;5029164;28;45488;-65
2022/09/02 06:09:10;;;;;;;;;19.33;16.33;;;;;21.28;53.70;100720.16;5020201;28;48788;-65
2022/09/02 06:11:38;;;;;;;;;15.67;14.33;;;;;21.24;53.89;100720.59;5031525;28;45232;-67
2022/09/02 06:14:06;;;;;;;;;12.00;12.00;;;;;21.18;54.05;100731.38;5025198;28;45413;-67
2022/09/02 06:16:32;;;;;;;;;14.33;14.33;;;;;21.08;54.33;100721.03;5036469;28;45447;-65
2022/09/02 06:18:58;;;;;;;;;14.00;13.33;;;;;20.56;54.44;100640.97;5024376;28;45391;-66
2022/09/02 06:21:23;;;;;;;;;16.00;15.33;;;;;21.08;54.37;100715.63;5019563;28;45312;-67
2022/09/02 06:23:49;;;;;;;;;14.67;13.00;;;;;20.79;53.91;100646.69;5019578;28;45308;-65
2022/09/02 06:26:16;;;;;;;;;15.00;14.00;;;;;21.23;53.73;100726.19;5033524;28;45450;-65
2022/09/02 06:28:41;;;;;;;;;15.67;14.00;;;;;21.28;53.51;100729.13;5021584;28;46529;-65
2022/09/02 06:31:13;;;;;;;;;19.00;17.33;;;;;21.39;53.41;100717.59;5031465;28;45423;-65
2022/09/02 06:33:39;;;;;;;;;16.00;15.33;;;;;21.31;52.98;100695.41;5019616;28;45298;-67
2022/09/02 06:36:07;;;;;;;;;19.33;16.33;;;;;21.23;53.14;100701.88;5034453;28;45301;-65
2022/09/02 06:38:36;;;;;;;;;17.00;15.33;;;;;21.34;53.22;100705.78;5019026;28;46433;-65
2022/09/02 06:41:02;;;;;;;;;15.00;15.00;;;;;21.39;53.32;100705.94;5019078;28;45198;-65
2022/09/02 06:43:28;;;;;;;;;14.00;13.00;;;;;21.47;52.70;100703.84;5017736;28;45647;-65
2022/09/02 06:45:53;;;;;;;;;16.33;16.33;;;;;21.13;52.46;100634.72;5023931;28;45510;-66
2022/09/02 06:48:19;;;;;;;;;13.00;12.67;;;;;21.60;52.32;100723.75;5058548;28;45727;-65
2022/09/02 06:50:46;;;;;;;;;13.00;13.00;;;;;21.58;52.30;100709.59;5037885;28;45455;-64
2022/09/02 06:53:12;;;;;;;;;15.00;13.67;;;;;21.46;51.75;100685.97;5018866;28;45226;-64
2022/09/02 06:55:42;;;;;;;;;15.00;13.67;;;;;21.71;51.31;100709.53;5018957;28;45431;-67
2022/09/02 06:58:07;;;;;;;;;10.00;10.00;;;;;22.01;50.40;100710.56;5033893;28;45846;-66
2022/09/02 07:00:34;;;;;;;;;14.00;13.33;;;;;22.46;49.18;100707.72;5033171;28;45534;-64
2022/09/02 07:05:45;;;;;;;;;14.67;14.33;;;;;23.83;45.94;100708.22;5018813;28;45218;-66
2022/09/02 07:08:11;;;;;;;;;13.00;12.33;;;;;24.23;45.06;100714.66;5026705;28;45859;-65
2022/09/02 07:10:40;;;;;;;;;13.00;13.00;;;;;24.39;43.40;100696.84;5038022;28;45446;-66
2022/09/02 07:13:07;;;;;;;;;12.67;12.67;;;;;24.46;43.73;100711.16;5037236;28;45388;-66
2022/09/02 07:15:33;;;;;;;;;10.67;10.00;;;;;24.25;44.14;100682.66;5034623;28;45270;-66
2022/09/02 07:17:59;;;;;;;;;13.67;12.00;;;;;24.34;44.08;100706.78;5026986;28;45719;-67
2022/09/02 07:20:25;;;;;;;;;12.33;12.00;;;;;23.73;44.41;100670.75;5046816;28;45404;-65
2022/09/02 07:22:51;;;;;;;;;15.00;13.67;;;;;23.64;45.05;100710.97;5036573;28;45435;-66
2022/09/02 07:25:17;;;;;;;;;12.67;11.00;;;;;23.36;45.35;100697.97;5018089;28;45523;-69
2022/09/02 07:27:43;;;;;;;;;13.00;12.00;;;;;23.13;45.78;100669.91;5018036;28;46624;-66
2022/09/02 07:30:12;;;;;;;;;15.33;11.33;;;;;23.16;46.44;100688.44;5022750;28;45307;-66
2022/09/02 07:32:38;;;;;;;;;11.67;11.67;;;;;22.98;46.25;100662.16;5037679;28;45320;-68
2022/09/02 07:35:05;;;;;;;;;18.67;16.67;;;;;22.95;46.49;100687.00;5038175;28;45290;-66
2022/09/02 07:37:33;;;;;;;;;15.67;11.67;;;;;22.93;46.36;100691.84;5033219;28;46836;-66
2022/09/02 07:39:59;;;;;;;;;15.00;12.67;;;;;22.32;46.02;100581.59;5019318;28;45486;-65
2022/09/02 07:42:24;;;;;;;;;13.33;11.33;;;;;23.03;46.04;100681.31;5034243;28;45444;-65
2022/09/02 07:44:50;;;;;;;;;8.33;8.33;;;;;23.00;45.50;100679.00;5022980;28;45468;-68
2022/09/02 07:47:15;;;;;;;;;14.67;13.00;;;;;23.20;44.93;100697.75;5017198;28;55922;-66
2022/09/02 07:49:40;;;;;;;;;13.00;12.00;;;;;22.85;45.52;100656.91;5023045;28;45284;-66
2022/09/02 07:52:06;;;;;;;;;14.00;11.67;;;;;23.12;44.74;100685.34;5038163;28;45737;-66
2022/09/02 07:54:31;;;;;;;;;10.00;9.67;;;;;22.67;44.51;100611.63;5037931;28;45289;-67
2022/09/02 07:56:57;;;;;;;;;13.67;12.67;;;;;23.20;44.49;100704.00;5031849;28;46934;-66
2022/09/02 07:59:23;;;;;;;;;10.67;9.00;;;;;23.19;44.57;100707.78;5038263;28;45439;-70
2022/09/02 08:01:50;;;;;;;;;11.67;11.67;;;;;23.23;44.04;100703.56;5030801;28;45206;-66
2022/09/02 08:04:17;;;;;;;;;19.00;15.67;;;;;23.28;43.79;100700.16;5020321;28;45436;-66
2022/09/02 08:06:43;;;;;;;;;12.33;10.33;;;;;22.68;43.26;100621.41;5032742;28;48308;-65
2022/09/02 08:09:12;;;;;;;;;13.33;13.33;;;;;23.28;43.35;100711.03;5025608;28;45445;-65
2022/09/02 08:11:41;;;;;;;;;13.00;13.00;;;;;23.38;43.32;100717.53;5017394;28;45310;-66
2022/09/02 08:14:10;;;;;;;;;11.33;11.33;;;;;23.33;43.32;100716.59;5017171;28;45355;-65
2022/09/02 08:16:37;;;;;;;;;12.33;10.33;;;;;23.33;43.29;100724.72;5019829;28;47579;-66
2022/09/02 08:19:03;;;;;;;;;7.33;7.33;;;;;23.32;43.23;100723.91;5020541;28;45545;-66
2022/09/02 08:21:28;;;;;;;;;8.67;8.67;;;;;23.30;42.91;100726.00;5021481;28;45190;-67
2022/09/02 08:23:54;;;;;;;;;11.00;10.67;;;;;23.26;43.19;100735.66;5024754;28;45248;-65
2022/09/02 08:26:20;;;;;;;;;12.33;12.33;;;;;23.22;43.06;100734.44;5027003;28;46268;-68
2022/09/02 08:28:45;;;;;;;;;12.00;10.33;;;;;22.92;42.98;100673.91;5037180;28;45297;-67
2022/09/02 08:31:11;;;;;;;;;9.00;9.00;;;;;23.29;43.64;100739.81;5035812;28;45809;-69
2022/09/02 08:33:36;;;;;;;;;10.67;9.67;;;;;23.34;43.51;100762.47;5030077;28;45546;-68
2022/09/02 08:36:10;;;;;;;;;12.00;9.67;;;;;23.42;43.24;100776.78;5035244;28;47579;-72
2022/09/02 08:38:36;;;;;;;;;11.67;11.67;;;;;23.42;43.25;100787.63;5036763;28;45417;-67
2022/09/02 08:41:11;;;;;;;;;11.33;10.00;;;;;23.41;43.52;100799.53;5035918;28;45506;-65
2022/09/02 08:43:42;;;;;;;;;15.33;11.67;;;;;23.38;44.19;100777.22;5037358;28;45613;-67
2022/09/02 08:46:13;;;;;;;;;10.00;10.00;;;;;23.40;44.61;100784.31;5036988;28;45681;-66
2022/09/02 08:48:54;;;;;;;;;9.67;9.67;;;;;23.36;45.00;100787.50;5037003;28;45560;-65
2022/09/02 08:51:26;;;;;;;;;13.00;11.67;;;;;22.94;45.95;100728.75;5037054;28;45470;-67
2022/09/02 08:54:10;;;;;;;;;11.00;10.67;;;;;23.37;46.53;100791.84;5037542;28;45434;-67
2022/09/02 08:56:36;;;;;;;;;12.33;12.33;;;;;23.38;46.87;100793.50;5036671;28;46934;-66
2022/09/02 08:59:03;;;;;;;;;14.33;14.00;;;;;23.40;46.92;100806.84;5036793;28;45229;-67
2022/09/02 09:01:47;;;;;;;;;15.00;15.00;;;;;23.42;49.08;100788.47;5036978;28;45454;-67
2022/09/02 09:04:25;;;;;;;;;13.33;13.00;;;;;23.48;49.59;100792.16;5036751;28;45252;-67
2022/09/02 09:07:05;;;;;;;;;15.00;13.33;;;;;23.53;49.48;100795.03;5037114;28;46869;-66
2022/09/02 09:10:01;;;;;;;;;17.00;14.67;;;;;23.62;48.84;100780.09;5036644;28;45351;-67
2022/09/02 09:12:38;;;;;;;;;17.67;16.33;;;;;23.75;48.87;100777.22;5036652;28;45951;-69
2022/09/02 09:15:09;;;;;;;;;15.00;13.33;;;;;23.86;48.07;100773.72;5037316;28;45465;-66
2022/09/02 09:17:41;;;;;;;;;16.67;16.33;;;;;23.91;48.00;100765.72;5036798;28;45657;-66
2022/09/02 09:20:14;;;;;;;;;15.00;15.00;;;;;23.97;47.61;100764.78;5036862;28;45513;-65
2022/09/02 09:22:41;;;;;;;;;16.00;14.67;;;;;24.01;46.90;100765.13;5035621;28;45372;-66
2022/09/02 09:25:15;;;;;;;;;12.67;12.67;;;;;24.07;46.31;100768.84;5036730;28;45514;-65
2022/09/02 09:27:44;;;;;;;;;15.33;14.00;;;;;24.13;45.71;100771.44;5036105;28;46479;-67
2022/09/02 09:30:10;;;;;;;;;13.33;13.33;;;;;24.27;45.69;100777.50;5036402;28;45512;-66
2022/09/02 09:32:40;;;;;;;;;18.00;18.00;;;;;24.29;45.51;100759.09;5031754;28;45458;-68
2022/09/02 09:35:07;;;;;;;;;20.33;17.67;;;;;24.58;44.43;100773.66;5033035;28;45443;-66
2022/09/02 09:37:47;;;;;;;;;14.67;12.33;;;;;24.71;44.60;100765.28;5015800;28;46852;-65
2022/09/02 09:40:19;;;;;;;;;15.33;12.67;;;;;24.91;43.66;100762.19;5030227;28;45359;-66
2022/09/02 09:42:46;;;;;;;;;19.67;16.67;;;;;25.08;43.34;100749.56;5036487;28;45436;-68
2022/09/02 09:45:27;;;;;;;;;17.00;15.33;;;;;25.28;43.49;100749.16;5026189;28;45464;-68
2022/09/02 09:48:26;;;;;;;;;16.33;16.33;;;;;25.43;42.91;100748.66;5016114;28;45678;-64
2022/09/02 09:50:54;;;;;;;;;15.00;13.67;;;;;25.53;42.65;100740.66;5015536;28;45424;-66
2022/09/02 09:53:22;;;;;;;;;14.67;12.67;;;;;25.08;41.79;100678.84;5016058;28;45350;-67
2022/09/02 09:55:57;;;;;;;;;14.00;14.00;;;;;25.49;41.98;100753.13;5015125;28;45626;-66
2022/09/02 09:58:37;;;;;;;;;16.33;14.67;;;;;25.55;42.02;100748.59;5015934;28;45787;-66
2022/09/02 10:01:22;;;;;;;;;17.00;13.00;;;;;25.39;42.21;100714.78;5026297;28;45278;-65
2022/09/02 10:03:59;;;;;;;;;11.67;11.67;;;;;25.60;41.92;100744.06;5036287;28;45366;-64
2022/09/02 10:06:31;;;;;;;;;15.33;13.00;;;;;25.64;41.68;100739.81;5032404;28;45512;-67
2022/09/02 10:09:02;;;;;;;;;12.33;12.33;;;;;25.63;41.66;100735.44;5018811;28;45830;-66
2022/09/02 10:11:29;;;;;;;;;14.33;14.33;;;;;25.58;41.55;100729.03;5015626;28;45388;-67
2022/09/02 10:13:59;;;;;;;;;12.67;12.33;;;;;25.50;41.19;100713.94;5015967;28;45398;-69
2022/09/02 10:16:43;;;;;;;;;15.33;14.33;;;;;25.64;40.81;100726.19;5014270;28;45507;-67
2022/09/02 10:19:27;;;;;;;;;12.67;12.00;;;;;25.70;40.63;100725.25;5015648;28;47707;-68
2022/09/02 10:22:07;;;;;;;;;13.33;13.33;;;;;25.76;40.62;100735.16;5023631;28;45470;-66
2022/09/02 10:24:57;;;;;;;;;13.67;13.00;;;;;25.75;39.98;100722.59;5035680;28;45329;-67
2022/09/02 10:27:55;;;;;;;;;15.00;14.00;;;;;25.74;40.23;100723.69;5036055;28;45219;-68
2022/09/02 10:30:22;;;;;;;;;13.67;13.33;;;;;25.72;40.38;100720.38;5037302;28;45844;-67
2022/09/02 10:32:54;;;;;;;;;16.33;14.67;;;;;25.74;40.82;100720.13;5035382;28;45662;-67
2022/09/02 10:35:51;;;;;;;;;17.00;15.00;;;;;25.74;41.15;100718.22;5035498;28;45219;-69
2022/09/02 10:38:42;;;;;;;;;11.67;11.00;;;;;25.78;41.31;100711.22;5035848;28;45196;-69
2022/09/02 10:41:08;;;;;;;;;19.33;18.33;;;;;25.81;41.02;100725.41;5022155;28;45648;-71
2022/09/02 10:43:42;;;;;;;;;14.33;13.67;;;;;25.77;40.98;100715.00;5015870;28;45382;-69
2022/09/02 10:46:11;;;;;;;;;20.00;16.33;;;;;25.77;41.76;100717.72;5013939;28;45299;-68
2022/09/02 10:49:09;;;;;;;;;14.00;14.00;;;;;24.97;41.83;100589.88;5016772;28;45471;-69
2022/09/02 10:51:44;;;;;;;;;16.33;15.33;;;;;25.81;42.52;100715.34;5019275;28;45720;-70
2022/09/02 10:54:12;;;;;;;;;17.33;17.33;;;;;25.82;41.76;100708.81;5018913;28;45367;-70
2022/09/02 10:56:56;;;;;;;;;19.33;17.33;;;;;25.66;41.49;100680.47;5024297;28;45438;-70
2022/09/02 10:59:43;;;;;;;;;16.67;16.67;;;;;25.84;41.91;100708.59;5037870;28;45297;-69
2022/09/02 11:02:13;;;;;;;;;17.00;16.67;;;;;25.84;42.03;100703.16;5038214;28;45846;-67
2022/09/02 11:04:48;;;;;;;;;16.00;15.33;;;;;25.76;42.00;100705.19;5035325;28;45484;-69
2022/09/02 11:07:26;;;;;;;;;16.33;16.33;;;;;25.73;42.63;100702.97;5038557;28;45489;-70
2022/09/02 11:09:57;;;;;;;;;15.67;15.67;;;;;25.68;42.67;100708.31;5038890;28;45344;-68
2022/09/02 11:12:31;;;;;;;;;15.00;14.00;;;;;25.63;43.58;100707.34;5036675;28;46113;-67
2022/09/02 11:15:03;;;;;;;;;22.33;18.67;;;;;25.13;44.43;100615.53;5031301;28;45635;-68
2022/09/02 11:17:37;;;;;;;;;21.00;20.00;;;;;25.64;43.97;100706.31;5018917;28;45282;-68
2022/09/02 11:20:17;;;;;;;;;27.00;23.67;;;;;25.62;45.01;100695.63;5019056;28;45522;-67
2022/09/02 11:23:00;;;;;;;;;22.33;21.00;;;;;25.60;45.57;100689.59;5022600;28;46075;-69
2022/09/02 11:25:40;;;;;;;;;29.67;27.00;;;;;25.56;44.27;100683.00;5018503;28;45231;-67